Time;durP1;ratioP1;P1;durP2;ratioP2;P2;SDS_P1;SDS_P2;PMS_P1;PMS_P2;Temp;Humidity;BMP_temperature;BMP_pressure;BME280_temperature;BME280_humidity;BME280_pressure;Samples;Min_cycle;Max_cycle;Signal;HPM_P1;HPM_P2
2020/12/13 00:00:47;;;;;;;24.70;14.80;;;19.70;47.50;;;;;;5055485;28;21404;-68
2020/12/13 00:03:13;;;;;;;22.10;12.50;;;19.60;47.40;;;;;;5071729;28;20489;-68
2020/12/13 00:05:40;;;;;;;23.53;13.27;;;19.60;47.40;;;;;;5071698;28;20482;-68
2020/12/13 00:08:06;;;;;;;23.53;14.03;;;19.60;47.50;;;;;;5071260;28;20486;-68
2020/12/13 00:10:33;;;;;;;22.70;13.33;;;19.60;47.50;;;;;;5071223;28;20500;-67
2020/12/13 00:12:59;;;;;;;27.33;15.03;;;19.60;47.50;;;;;;5072640;28;20484;-67
2020/12/13 00:15:25;;;;;;;19.07;12.73;;;19.60;47.50;;;;;;5068474;28;21603;-68
2020/12/13 00:17:52;;;;;;;27.10;13.70;;;19.60;47.50;;;;;;5069823;28;20492;-68
2020/12/13 00:20:18;;;;;;;21.07;13.43;;;19.50;48.20;;;;;;5073938;28;21979;-68
2020/12/13 00:22:45;;;;;;;25.13;13.53;;;19.50;47.40;;;;;;5071821;28;20523;-69
2020/12/13 00:25:11;;;;;;;20.20;13.53;;;19.50;47.40;;;;;;5066752;28;20997;-69
2020/12/13 00:27:38;;;;;;;24.37;14.13;;;19.50;47.40;;;;;;5070874;28;20470;-67
2020/12/13 00:30:05;;;;;;;21.43;13.10;;;19.60;47.40;;;;;;5069208;28;20684;-69
2020/12/13 00:32:31;;;;;;;21.93;13.27;;;19.60;47.40;;;;;;5071871;28;20477;-69
2020/12/13 00:34:57;;;;;;;24.70;14.90;;;19.60;47.20;;;;;;5071012;28;20484;-68
2020/12/13 00:37:23;;;;;;;19.70;13.27;;;19.70;47.20;;;;;;5071872;28;20484;-69
2020/12/13 00:39:49;;;;;;;24.87;13.87;;;19.70;47.10;;;;;;5070387;28;20489;-68
2020/12/13 00:42:16;;;;;;;24.17;13.00;;;19.70;47.00;;;;;;5060433;28;20524;-68
2020/12/13 00:44:43;;;;;;;28.47;14.87;;;19.80;47.10;;;;;;5068992;28;20983;-71
2020/12/13 00:47:09;;;;;;;24.23;14.73;;;19.80;46.90;;;;;;5061933;28;20490;-69
2020/12/13 00:49:35;;;;;;;30.90;15.17;;;19.80;46.90;;;;;;5049249;28;20523;-68
2020/12/13 00:52:02;;;;;;;24.17;15.30;;;19.80;46.90;;;;;;5050399;28;20486;-69
2020/12/13 00:54:28;;;;;;;24.30;13.80;;;19.70;47.00;;;;;;5050995;28;20485;-69
2020/12/13 00:56:54;;;;;;;29.27;14.37;;;19.70;47.00;;;;;;5047737;28;20489;-69
2020/12/13 00:59:20;;;;;;;25.03;12.73;;;19.70;47.10;;;;;;5047816;28;20981;-69
2020/12/13 01:01:47;;;;;;;29.07;16.10;;;19.60;47.10;;;;;;5050285;28;21147;-69
2020/12/13 01:04:13;;;;;;;23.83;14.17;;;19.60;47.20;;;;;;5039692;28;20473;-68
2020/12/13 01:06:40;;;;;;;26.60;14.40;;;19.60;47.20;;;;;;5052352;28;20474;-67
2020/12/13 01:09:06;;;;;;;21.07;13.70;;;19.60;47.10;;;;;;5050314;28;20487;-68
2020/12/13 01:11:33;;;;;;;29.07;15.20;;;19.60;47.20;;;;;;5051661;28;20474;-68
2020/12/13 01:13:59;;;;;;;24.10;13.80;;;19.60;47.10;;;;;;5050194;28;20482;-69
2020/12/13 01:16:26;;;;;;;26.80;15.27;;;19.60;47.20;;;;;;5047870;28;20482;-68
2020/12/13 01:18:53;;;;;;;23.37;13.80;;;19.60;47.30;;;;;;5049231;28;20488;-68
2020/12/13 01:21:19;;;;;;;25.27;13.13;;;19.60;47.10;;;;;;5052279;28;20496;-68
2020/12/13 01:23:46;;;;;;;23.17;14.30;;;19.60;47.10;;;;;;5053508;28;20485;-70
2020/12/13 01:26:12;;;;;;;25.10;14.63;;;19.60;47.10;;;;;;5039575;28;20985;-69
2020/12/13 01:28:39;;;;;;;23.40;14.47;;;19.50;47.10;;;;;;5047078;28;20478;-68
2020/12/13 01:31:05;;;;;;;22.73;14.67;;;19.60;47.10;;;;;;5040073;28;20479;-68
2020/12/13 01:33:31;;;;;;;26.73;13.10;;;19.60;47.10;;;;;;5042663;28;20475;-69
2020/12/13 01:35:58;;;;;;;22.60;14.47;;;19.60;47.00;;;;;;5049808;28;20523;-68
2020/12/13 01:38:24;;;;;;;20.57;13.03;;;19.60;47.00;;;;;;5051567;28;20504;-68
2020/12/13 01:40:55;;;;;;;27.60;15.07;;;19.60;47.00;;;;;;5051350;28;20481;-67
2020/12/13 01:43:21;;;;;;;28.53;16.57;;;19.60;46.90;;;;;;5036734;28;20532;-68
2020/12/13 01:45:48;;;;;;;24.30;14.20;;;19.60;47.00;;;;;;5021565;28;20535;-68
2020/12/13 01:48:14;;;;;;;22.00;14.13;;;19.60;47.00;;;;;;5060644;28;20634;-69
2020/12/13 01:50:43;;;;;;;28.57;15.27;;;19.60;47.10;;;;;;5053331;28;20477;-69
2020/12/13 01:53:17;;;;;;;27.60;16.03;;;19.60;47.10;;;;;;5041785;28;21065;-71
2020/12/13 01:55:44;;;;;;;25.00;14.03;;;19.60;47.10;;;;;;5048538;28;20473;-68
2020/12/13 01:58:14;;;;;;;24.23;13.30;;;19.60;47.10;;;;;;5040047;28;21019;-68
2020/12/13 02:00:43;;;;;;;21.97;12.70;;;19.60;47.10;;;;;;5048515;28;20505;-68
2020/12/13 02:03:09;;;;;;;21.67;13.97;;;19.60;47.10;;;;;;5050047;28;20490;-68
2020/12/13 02:05:35;;;;;;;25.13;14.23;;;19.60;47.10;;;;;;5051526;28;20470;-68
2020/12/13 02:08:01;;;;;;;27.27;14.27;;;19.60;47.10;;;;;;5051095;28;20495;-68
2020/12/13 02:10:28;;;;;;;22.50;12.97;;;19.60;47.10;;;;;;5041791;28;20473;-68
2020/12/13 02:12:54;;;;;;;22.70;13.50;;;19.60;47.10;;;;;;5049072;28;20539;-67
2020/12/13 02:15:20;;;;;;;23.50;13.50;;;19.60;47.10;;;;;;5040475;28;20516;-68
2020/12/13 02:17:47;;;;;;;25.20;12.90;;;19.50;47.00;;;;;;5048768;28;20484;-68
2020/12/13 02:20:14;;;;;;;23.30;13.20;;;19.50;47.00;;;;;;5052945;28;20959;-69
2020/12/13 02:22:41;;;;;;;23.40;12.90;;;19.50;46.90;;;;;;5055478;28;20489;-70
2020/12/13 02:25:09;;;;;;;19.60;12.90;;;19.50;47.00;;;;;;5053146;28;20479;-68
2020/12/13 02:27:35;;;;;;;21.93;12.33;;;19.50;47.00;;;;;;5049377;28;20540;-68
2020/12/13 02:30:01;;;;;;;22.20;12.30;;;19.60;47.00;;;;;;5050158;28;20490;-68
2020/12/13 02:32:27;;;;;;;24.53;14.13;;;19.60;47.00;;;;;;5055013;28;20562;-69
2020/12/13 02:34:53;;;;;;;25.40;13.00;;;19.60;47.00;;;;;;5052385;28;20474;-68
2020/12/13 02:37:19;;;;;;;19.00;12.53;;;19.60;46.90;;;;;;5051924;28;20478;-68
2020/12/13 02:39:46;;;;;;;25.57;12.73;;;19.60;46.90;;;;;;5056855;28;20478;-67
2020/12/13 02:42:13;;;;;;;20.77;12.27;;;19.50;46.90;;;;;;5054132;28;20997;-68
2020/12/13 02:44:39;;;;;;;19.33;12.03;;;19.50;46.90;;;;;;5054993;28;20512;-68
2020/12/13 02:47:05;;;;;;;20.07;11.63;;;19.50;47.00;;;;;;5043897;28;20486;-67
2020/12/13 02:49:31;;;;;;;21.83;13.00;;;19.60;47.00;;;;;;5062860;28;20485;-69
2020/12/13 02:51:57;;;;;;;21.83;12.50;;;19.60;47.00;;;;;;5059180;28;20501;-68
2020/12/13 02:54:23;;;;;;;24.20;12.40;;;19.60;47.70;;;;;;5054544;28;20486;-68
2020/12/13 02:56:50;;;;;;;21.43;12.60;;;19.60;46.80;;;;;;5054339;28;20481;-68
2020/12/13 02:59:16;;;;;;;19.37;12.20;;;19.70;46.80;;;;;;5050490;28;20474;-68
2020/12/13 03:01:43;;;;;;;22.90;13.07;;;19.70;46.80;;;;;;5053008;28;20488;-67
2020/12/13 03:04:09;;;;;;;20.00;11.40;;;19.70;46.60;;;;;;5052135;28;21131;-68
2020/12/13 03:06:35;;;;;;;24.53;12.37;;;19.70;47.00;;;;;;5049426;28;20977;-69
2020/12/13 03:09:01;;;;;;;20.90;11.73;;;19.70;46.70;;;;;;5053821;28;20517;-68
2020/12/13 03:11:28;;;;;;;18.97;11.30;;;19.60;46.50;;;;;;5056677;28;20478;-70
2020/12/13 03:13:55;;;;;;;19.23;11.40;;;19.70;46.60;;;;;;5050978;28;20478;-68
2020/12/13 03:16:21;;;;;;;24.47;12.27;;;19.60;46.60;;;;;;5047540;28;20501;-68
2020/12/13 03:18:47;;;;;;;20.37;12.17;;;19.60;46.80;;;;;;5053026;28;20466;-69
2020/12/13 03:21:13;;;;;;;21.87;11.73;;;19.60;46.80;;;;;;5054808;28;20479;-67
2020/12/13 03:23:39;;;;;;;16.37;12.00;;;19.50;46.70;;;;;;5051062;28;20473;-69
2020/12/13 03:26:05;;;;;;;18.17;12.83;;;19.50;46.80;;;;;;5038476;28;20552;-68
2020/12/13 03:28:31;;;;;;;21.10;12.50;;;19.50;46.80;;;;;;5048467;28;20486;-68
2020/12/13 03:30:58;;;;;;;22.47;12.50;;;19.50;46.80;;;;;;5048382;28;20486;-68
2020/12/13 03:33:24;;;;;;;18.63;11.87;;;19.50;46.80;;;;;;5053688;28;21057;-68
2020/12/13 03:35:51;;;;;;;18.93;11.97;;;19.50;46.80;;;;;;5053650;28;20497;-66
2020/12/13 03:38:17;;;;;;;24.27;13.33;;;19.50;46.70;;;;;;5052964;28;20484;-67
2020/12/13 03:40:43;;;;;;;20.00;11.50;;;19.50;46.80;;;;;;5044640;28;20482;-68
2020/12/13 03:43:09;;;;;;;19.30;12.70;;;19.50;46.90;;;;;;5054198;28;20526;-68
2020/12/13 03:45:35;;;;;;;22.07;12.37;;;19.50;46.80;;;;;;5048940;28;20501;-68
2020/12/13 03:48:02;;;;;;;26.43;13.43;;;19.50;46.80;;;;;;5045749;28;20490;-68
2020/12/13 03:50:38;;;;;;;20.40;12.03;;;19.50;46.90;;;;;;5044491;28;20490;-69
2020/12/13 03:53:07;;;;;;;20.80;10.77;;;19.50;46.80;;;;;;5049656;28;21026;-69
2020/12/13 03:55:33;;;;;;;24.33;11.60;;;19.50;46.80;;;;;;5050721;28;20486;-68
2020/12/13 03:58:00;;;;;;;18.93;11.07;;;19.50;46.70;;;;;;5047381;28;20489;-69
2020/12/13 04:00:27;;;;;;;16.50;10.40;;;19.50;46.80;;;;;;5049089;28;20482;-68
2020/12/13 04:02:56;;;;;;;23.57;13.30;;;19.50;46.70;;;;;;5052608;28;22138;-67
2020/12/13 04:05:23;;;;;;;24.80;12.27;;;19.50;46.70;;;;;;5053321;28;20478;-66
2020/12/13 04:07:49;;;;;;;23.37;12.40;;;19.50;46.70;;;;;;5050121;28;20478;-67
2020/12/13 04:10:16;;;;;;;22.60;13.20;;;19.50;46.70;;;;;;5053383;28;20910;-68
2020/12/13 04:12:42;;;;;;;21.57;11.90;;;19.50;46.70;;;;;;5052620;28;20482;-68
2020/12/13 04:15:08;;;;;;;18.50;11.50;;;19.50;46.70;;;;;;5047414;28;20518;-69
2020/12/13 04:17:34;;;;;;;19.77;11.03;;;19.60;46.70;;;;;;5050532;28;20473;-68
2020/12/13 04:20:00;;;;;;;23.13;11.30;;;19.60;46.60;;;;;;5052048;28;20505;-68
2020/12/13 04:22:27;;;;;;;21.77;11.90;;;19.50;46.50;;;;;;5053584;28;20471;-69
2020/12/13 04:24:53;;;;;;;20.50;11.40;;;19.50;46.50;;;;;;5050559;28;20478;-67
2020/12/13 04:27:19;;;;;;;27.07;12.67;;;19.50;46.50;;;;;;5051470;28;20481;-68
2020/12/13 04:29:46;;;;;;;19.17;11.40;;;19.50;46.60;;;;;;5041345;28;20486;-67
2020/12/13 04:32:12;;;;;;;18.00;10.73;;;19.50;46.70;;;;;;5051483;28;20482;-68
2020/12/13 04:34:38;;;;;;;20.53;12.27;;;19.50;46.60;;;;;;5050719;28;21162;-67
2020/12/13 04:37:04;;;;;;;19.40;10.27;;;19.50;46.70;;;;;;5051921;28;21008;-68
2020/12/13 04:39:31;;;;;;;19.83;10.43;;;19.50;46.70;;;;;;5050416;28;20941;-68
2020/12/13 04:41:57;;;;;;;16.67;10.83;;;19.50;46.70;;;;;;5052533;28;20493;-67
2020/12/13 04:44:23;;;;;;;17.77;10.90;;;19.50;46.70;;;;;;5039951;28;20473;-68
2020/12/13 04:46:52;;;;;;;19.40;10.60;;;19.50;46.70;;;;;;5048012;28;21002;-67
2020/12/13 04:49:18;;;;;;;16.53;10.10;;;19.40;46.60;;;;;;5059895;28;20481;-67
2020/12/13 04:51:44;;;;;;;21.97;12.00;;;19.50;46.70;;;;;;5052082;28;20483;-68
2020/12/13 04:54:11;;;;;;;21.00;11.83;;;19.40;46.60;;;;;;5053319;28;21105;-68
2020/12/13 04:56:38;;;;;;;21.20;12.57;;;19.40;47.40;;;;;;5049271;28;20519;-67
2020/12/13 04:59:04;;;;;;;18.30;10.60;;;19.40;46.60;;;;;;5048264;28;20490;-69
2020/12/13 05:01:31;;;;;;;19.40;11.73;;;19.40;46.60;;;;;;5051613;28;20497;-68
2020/12/13 05:03:57;;;;;;;20.10;11.47;;;19.40;46.40;;;;;;5052236;28;20482;-68
2020/12/13 05:06:23;;;;;;;27.93;11.43;;;19.40;46.50;;;;;;5053224;28;20481;-68
2020/12/13 05:08:50;;;;;;;18.43;11.47;;;19.40;46.60;;;;;;5053081;28;20494;-68
2020/12/13 05:11:16;;;;;;;20.53;11.17;;;19.50;46.70;;;;;;5052330;28;20473;-68
2020/12/13 05:13:43;;;;;;;19.73;11.53;;;19.50;46.60;;;;;;5051295;28;20475;-68
2020/12/13 05:16:09;;;;;;;19.93;12.03;;;19.50;47.30;;;;;;5050099;28;21021;-69
2020/12/13 05:18:38;;;;;;;17.93;10.17;;;19.50;46.40;;;;;;5050945;28;20490;-68
2020/12/13 05:21:04;;;;;;;21.90;11.80;;;19.50;46.40;;;;;;5052174;28;20922;-70
2020/12/13 05:23:31;;;;;;;19.77;11.80;;;19.50;46.50;;;;;;5052346;28;20493;-69
2020/12/13 05:25:57;;;;;;;21.70;12.60;;;19.50;46.50;;;;;;5047895;28;20478;-67
2020/12/13 05:28:24;;;;;;;18.80;10.93;;;19.40;46.60;;;;;;5051701;28;20470;-69
2020/12/13 05:30:51;;;;;;;18.97;11.97;;;19.40;46.70;;;;;;5041004;28;21005;-67
2020/12/13 05:33:21;;;;;;;19.10;10.90;;;19.40;46.60;;;;;;5067475;28;21589;-68
2020/12/13 05:35:47;;;;;;;16.93;11.67;;;19.40;46.50;;;;;;5071764;28;20468;-69
2020/12/13 05:38:14;;;;;;;14.30;10.57;;;19.40;46.60;;;;;;5063957;28;20967;-68
2020/12/13 05:40:41;;;;;;;15.87;10.50;;;19.30;46.60;;;;;;5084889;28;20484;-68
2020/12/13 05:43:11;;;;;;;22.97;11.93;;;19.40;46.70;;;;;;5071574;28;21005;-68
2020/12/13 05:45:54;;;;;;;19.90;12.30;;;19.40;46.60;;;;;;5056472;28;20958;-68
2020/12/13 05:48:44;;;;;;;20.00;11.23;;;19.40;46.60;;;;;;5054869;28;20554;-69
2020/12/13 05:51:21;;;;;;;20.80;11.70;;;19.40;46.60;;;;;;5070933;28;20482;-68
2020/12/13 05:53:47;;;;;;;21.90;10.50;;;19.40;46.60;;;;;;5069775;28;20476;-68
2020/12/13 05:56:13;;;;;;;23.30;12.43;;;19.40;46.50;;;;;;5071291;28;21038;-67
2020/12/13 05:58:39;;;;;;;20.13;10.80;;;19.40;46.60;;;;;;5062228;28;20473;-70
2020/12/13 06:01:05;;;;;;;21.80;11.27;;;19.40;46.70;;;;;;5073471;28;20484;-68
2020/12/13 06:03:33;;;;;;;20.03;11.53;;;19.30;46.50;;;;;;5074473;28;20966;-68
2020/12/13 06:06:03;;;;;;;17.93;10.63;;;19.30;46.50;;;;;;5074891;28;20490;-69
2020/12/13 06:08:32;;;;;;;16.40;10.37;;;19.40;46.60;;;;;;5071064;28;20492;-69
2020/12/13 06:10:58;;;;;;;20.90;11.40;;;19.40;46.50;;;;;;5074657;28;20481;-68
2020/12/13 06:13:25;;;;;;;18.27;11.10;;;19.40;46.50;;;;;;5075881;28;20480;-68
2020/12/13 06:15:51;;;;;;;19.80;11.20;;;19.40;46.40;;;;;;5068538;28;20484;-66
2020/12/13 06:18:17;;;;;;;13.83;9.53;;;19.50;46.20;;;;;;5074220;28;20477;-69
2020/12/13 06:20:44;;;;;;;18.70;10.70;;;19.50;46.20;;;;;;5074032;28;20481;-68
2020/12/13 06:23:10;;;;;;;20.60;11.10;;;19.50;46.20;;;;;;5072037;28;20521;-68
2020/12/13 06:25:36;;;;;;;19.53;11.93;;;19.60;46.10;;;;;;5075439;28;20480;-67
2020/12/13 06:28:02;;;;;;;15.97;10.77;;;19.60;46.30;;;;;;5081885;28;20477;-69
2020/12/13 06:30:28;;;;;;;19.53;11.03;;;19.60;46.10;;;;;;5086846;28;20505;-67
2020/12/13 06:32:55;;;;;;;16.40;10.60;;;19.60;46.10;;;;;;5076979;28;20480;-67
2020/12/13 06:35:21;;;;;;;21.67;11.10;;;19.60;46.10;;;;;;5074179;28;20512;-68
2020/12/13 06:37:48;;;;;;;17.33;11.33;;;19.50;46.20;;;;;;5074387;28;20472;-67
2020/12/13 06:40:19;;;;;;;21.80;11.93;;;19.50;46.20;;;;;;5072475;28;20482;-69
2020/12/13 06:42:46;;;;;;;40.00;10.90;;;19.50;46.20;;;;;;5074884;28;21311;-70
2020/12/13 06:45:13;;;;;;;16.60;9.27;;;19.50;47.80;;;;;;5068983;27;20491;-68
2020/12/13 06:47:40;;;;;;;17.60;10.50;;;19.50;46.50;;;;;;5087570;28;20481;-68
2020/12/13 06:50:08;;;;;;;22.73;11.60;;;19.60;46.10;;;;;;5071392;28;20493;-68
2020/12/13 06:52:34;;;;;;;13.60;9.40;;;19.60;46.20;;;;;;5075210;28;20520;-68
2020/12/13 06:55:01;;;;;;;16.43;10.00;;;19.50;46.20;;;;;;5068781;28;20500;-67
2020/12/13 06:57:30;;;;;;;16.03;9.37;;;19.50;46.40;;;;;;5087693;28;20993;-69
2020/12/13 06:59:56;;;;;;;18.50;9.97;;;19.40;46.40;;;;;;5074364;28;20485;-68
2020/12/13 07:02:56;;;;;;;12.10;9.77;;;19.40;46.40;;;;;;5068268;28;20523;-68
2020/12/13 07:05:22;;;;;;;15.37;9.70;;;19.40;46.30;;;;;;5057239;28;21301;-67
2020/12/13 07:07:54;;;;;;;13.63;9.20;;;19.40;46.40;;;;;;5074379;28;20491;-67
2020/12/13 07:10:21;;;;;;;16.33;10.07;;;19.40;46.50;;;;;;5053702;28;20519;-66
2020/12/13 07:12:49;;;;;;;17.17;10.63;;;19.50;46.40;;;;;;5085430;28;20704;-68
2020/12/13 07:15:21;;;;;;;15.10;9.47;;;19.50;46.20;;;;;;5073802;28;20492;-67
2020/12/13 07:17:47;;;;;;;19.10;9.57;;;19.50;46.20;;;;;;5075085;28;20538;-68
2020/12/13 07:20:13;;;;;;;13.67;9.30;;;19.50;46.20;;;;;;5073678;28;20873;-66
2020/12/13 07:22:39;;;;;;;17.27;10.00;;;19.50;46.20;;;;;;5072690;28;20876;-68
2020/12/13 07:25:06;;;;;;;17.90;10.80;;;19.50;46.20;;;;;;5073345;28;20477;-69
2020/12/13 07:27:33;;;;;;;19.10;9.90;;;19.50;46.20;;;;;;5073418;28;20496;-68
2020/12/13 07:29:59;;;;;;;18.20;10.13;;;19.50;46.20;;;;;;5073700;28;20648;-69
2020/12/13 07:32:25;;;;;;;15.00;10.17;;;19.50;46.20;;;;;;5072856;28;20504;-69
2020/12/13 07:34:52;;;;;;;16.63;11.10;;;19.50;46.20;;;;;;5072548;28;20488;-68
2020/12/13 07:37:19;;;;;;;17.97;11.50;;;19.50;46.10;;;;;;5077332;28;21036;-68
2020/12/13 07:39:45;;;;;;;18.97;9.87;;;19.50;46.00;;;;;;5073912;28;21020;-69
2020/12/13 07:42:13;;;;;;;16.30;10.67;;;19.50;45.80;;;;;;5075112;28;20864;-68
2020/12/13 07:44:40;;;;;;;19.90;9.83;;;19.50;45.80;;;;;;5072384;28;20545;-68
2020/12/13 07:47:07;;;;;;;19.70;10.03;;;19.50;45.70;;;;;;5054896;28;20544;-69
2020/12/13 07:49:33;;;;;;;16.23;10.43;;;19.50;46.70;;;;;;5055401;28;20485;-68
2020/12/13 07:51:59;;;;;;;18.87;11.53;;;19.50;46.00;;;;;;5056012;28;20482;-66
2020/12/13 07:54:26;;;;;;;17.50;10.97;;;19.50;46.10;;;;;;5052990;28;20488;-69
2020/12/13 07:56:53;;;;;;;13.43;9.50;;;19.50;46.00;;;;;;5057071;28;20967;-69
2020/12/13 07:59:20;;;;;;;22.37;10.20;;;19.60;46.10;;;;;;5055815;28;20476;-71
2020/12/13 08:01:47;;;;;;;22.47;10.97;;;19.60;45.90;;;;;;5058509;28;21419;-68
2020/12/13 08:04:14;;;;;;;17.60;10.20;;;19.60;45.80;;;;;;5071379;28;20514;-69
2020/12/13 08:06:40;;;;;;;14.87;9.43;;;19.60;45.80;;;;;;5074339;28;20485;-69
2020/12/13 08:09:07;;;;;;;21.17;10.77;;;19.50;45.90;;;;;;5072253;28;20498;-69
2020/12/13 08:11:33;;;;;;;14.20;9.77;;;19.50;45.90;;;;;;5063260;28;20492;-68
2020/12/13 08:13:59;;;;;;;24.60;13.03;;;19.50;45.80;;;;;;5070957;28;21748;-69
2020/12/13 08:16:26;;;;;;;20.00;11.80;;;19.50;45.70;;;;;;5068556;28;20865;-66
2020/12/13 08:18:55;;;;;;;20.73;12.23;;;19.50;45.40;;;;;;5071503;28;20522;-70
2020/12/13 08:21:25;;;;;;;22.67;12.13;;;19.60;45.40;;;;;;5058707;28;20469;-68
2020/12/13 08:23:52;;;;;;;23.90;11.30;;;19.50;45.70;;;;;;5062439;28;20515;-68
2020/12/13 08:26:18;;;;;;;20.60;9.73;;;19.50;45.70;;;;;;5071914;28;20522;-67
2020/12/13 08:28:45;;;;;;;16.33;10.33;;;19.50;45.70;;;;;;5076800;28;20473;-68
2020/12/13 08:31:13;;;;;;;22.73;10.60;;;19.60;45.80;;;;;;5072369;28;20489;-68
2020/12/13 08:33:40;;;;;;;17.60;10.83;;;19.60;45.90;;;;;;5072377;28;21923;-69
2020/12/13 08:36:18;;;;;;;21.03;11.27;;;19.60;45.60;;;;;;5072443;28;20941;-67
2020/12/13 08:38:44;;;;;;;19.07;11.80;;;19.60;45.80;;;;;;5070641;28;20512;-69
2020/12/13 08:41:12;;;;;;;20.90;11.03;;;19.60;45.60;;;;;;5061824;28;20482;-69
2020/12/13 08:43:38;;;;;;;17.30;11.00;;;19.70;45.70;;;;;;5073235;28;20481;-69
2020/12/13 08:46:04;;;;;;;24.67;11.77;;;19.60;45.60;;;;;;5070424;28;20485;-68
2020/12/13 08:48:31;;;;;;;21.60;11.97;;;19.60;45.60;;;;;;5072101;28;20480;-67
2020/12/13 08:51:07;;;;;;;18.83;11.33;;;19.50;45.80;;;;;;5072237;28;20505;-69
2020/12/13 08:53:34;;;;;;;22.10;11.03;;;19.50;46.30;;;;;;5073175;28;20475;-68
2020/12/13 08:56:04;;;;;;;26.40;12.80;;;19.50;45.90;;;;;;5072764;28;20480;-70
2020/12/13 08:58:30;;;;;;;20.90;12.07;;;19.40;45.90;;;;;;5071863;28;20495;-67
2020/12/13 09:01:06;;;;;;;22.27;13.30;;;19.40;45.80;;;;;;5062940;28;20485;-68
2020/12/13 09:03:32;;;;;;;22.23;11.87;;;19.40;45.80;;;;;;5087136;28;20529;-67
2020/12/13 09:05:58;;;;;;;23.80;13.90;;;19.40;45.70;;;;;;5071853;28;20480;-68
2020/12/13 09:08:24;;;;;;;22.83;11.80;;;19.40;45.60;;;;;;5072456;28;21016;-67
2020/12/13 09:10:52;;;;;;;22.80;11.70;;;19.40;45.80;;;;;;5073181;28;20480;-66
2020/12/13 09:13:19;;;;;;;22.60;11.97;;;19.40;46.10;;;;;;5071967;28;20564;-68
2020/12/13 09:15:45;;;;;;;23.70;13.50;;;19.40;46.10;;;;;;5073678;28;20952;-67
2020/12/13 09:18:11;;;;;;;18.80;11.33;;;19.30;46.00;;;;;;5063795;28;20513;-68
2020/12/13 09:20:37;;;;;;;25.50;12.47;;;19.30;46.00;;;;;;5085942;28;20484;-67
2020/12/13 09:23:03;;;;;;;26.60;12.90;;;19.30;46.10;;;;;;5070772;28;20489;-67
2020/12/13 09:25:29;;;;;;;21.47;12.17;;;19.30;46.00;;;;;;5074534;28;21005;-68
2020/12/13 09:28:01;;;;;;;24.93;12.50;;;19.30;46.00;;;;;;5066683;28;20861;-67
2020/12/13 09:30:28;;;;;;;22.23;12.53;;;19.30;46.00;;;;;;5072700;28;20517;-68
2020/12/13 09:32:54;;;;;;;22.77;13.43;;;19.30;46.00;;;;;;5072676;28;20484;-69
2020/12/13 09:35:20;;;;;;;21.43;13.40;;;19.30;46.00;;;;;;5072576;28;20890;-68
2020/12/13 09:37:46;;;;;;;26.10;11.80;;;19.30;46.10;;;;;;5069171;28;20500;-68
2020/12/13 09:40:12;;;;;;;24.70;12.10;;;19.30;46.00;;;;;;5072482;28;20496;-68
2020/12/13 09:42:38;;;;;;;20.27;12.27;;;19.40;46.10;;;;;;5073341;28;20472;-69
2020/12/13 09:45:05;;;;;;;24.57;12.10;;;19.50;46.20;;;;;;5061590;28;21035;-68
2020/12/13 09:47:32;;;;;;;22.70;12.23;;;19.50;46.10;;;;;;5072512;28;20476;-68
2020/12/13 09:49:59;;;;;;;21.33;11.70;;;19.50;46.00;;;;;;5070519;28;20529;-68
2020/12/13 09:52:25;;;;;;;21.10;12.23;;;19.60;45.80;;;;;;5073746;28;20564;-65
2020/12/13 09:54:51;;;;;;;26.17;13.33;;;19.60;45.70;;;;;;5060967;28;20612;-69
2020/12/13 09:57:17;;;;;;;20.73;12.10;;;19.60;45.80;;;;;;5073505;28;20480;-69
2020/12/13 09:59:43;;;;;;;22.73;12.33;;;19.60;45.70;;;;;;5067794;28;20857;-69
2020/12/13 10:02:10;;;;;;;23.90;12.10;;;19.60;45.80;;;;;;5081183;28;20484;-70
2020/12/13 10:04:37;;;;;;;21.70;12.97;;;19.60;46.60;;;;;;5068490;28;20547;-69
2020/12/13 10:07:19;;;;;;;28.90;14.07;;;19.50;45.70;;;;;;5075536;28;20496;-68
2020/12/13 10:09:45;;;;;;;27.23;14.33;;;19.50;45.70;;;;;;5073161;28;20485;-69
2020/12/13 10:12:11;;;;;;;30.67;14.37;;;19.50;45.90;;;;;;5064034;28;20496;-66
2020/12/13 10:14:37;;;;;;;25.37;13.80;;;19.40;45.90;;;;;;5070030;28;20243;-66
2020/12/13 10:17:04;;;;;;;25.83;13.40;;;19.40;46.00;;;;;;5060453;28;20501;-69
2020/12/13 10:19:31;;;;;;;24.87;14.27;;;19.40;46.10;;;;;;5082712;28;20515;-69
2020/12/13 10:21:57;;;;;;;23.63;14.20;;;19.40;46.10;;;;;;5066350;28;21277;-68
2020/12/13 10:24:23;;;;;;;28.73;14.53;;;19.50;46.20;;;;;;5077452;28;20481;-68
2020/12/13 10:26:49;;;;;;;23.63;13.67;;;19.50;45.90;;;;;;5069902;28;20484;-68
2020/12/13 10:29:16;;;;;;;28.90;12.37;;;19.60;45.80;;;;;;5069118;28;20505;-69
2020/12/13 10:31:42;;;;;;;27.93;14.20;;;19.60;45.80;;;;;;5050862;28;20477;-69
2020/12/13 10:34:09;;;;;;;25.13;13.60;;;19.70;45.70;;;;;;5041173;28;21039;-68
2020/12/13 10:36:37;;;;;;;29.67;14.17;;;19.70;45.70;;;;;;5052556;28;20474;-67
2020/12/13 10:39:04;;;;;;;24.33;13.80;;;19.70;45.70;;;;;;5050142;28;21579;-68
2020/12/13 10:41:31;;;;;;;23.00;13.90;;;19.60;45.60;;;;;;5053464;28;20512;-69
2020/12/13 10:43:57;;;;;;;22.10;12.80;;;19.60;45.80;;;;;;5063686;28;20485;-66
2020/12/13 10:46:23;;;;;;;28.00;14.83;;;19.50;45.80;;;;;;5068311;28;20480;-64
2020/12/13 10:48:49;;;;;;;26.80;13.23;;;19.50;45.90;;;;;;5069769;28;21617;-67
2020/12/13 10:51:16;;;;;;;26.80;14.80;;;19.50;46.00;;;;;;5073130;28;21278;-68
2020/12/13 10:53:43;;;;;;;23.07;13.37;;;19.50;46.20;;;;;;5072708;28;20473;-66
2020/12/13 10:56:09;;;;;;;22.80;12.83;;;19.50;46.20;;;;;;5069829;28;20489;-68
2020/12/13 10:58:35;;;;;;;30.40;15.70;;;19.50;46.20;;;;;;5071048;28;21325;-67
2020/12/13 11:01:01;;;;;;;29.40;16.33;;;19.40;46.20;;;;;;5067755;28;21319;-68
2020/12/13 11:03:28;;;;;;;31.97;15.87;;;19.50;46.20;;;;;;5047380;28;20496;-68
2020/12/13 11:05:54;;;;;;;34.10;15.10;;;19.50;46.20;;;;;;5048072;28;20524;-68
2020/12/13 11:08:22;;;;;;;30.67;15.37;;;19.50;46.20;;;;;;5035757;28;21203;-69
2020/12/13 11:10:49;;;;;;;25.50;14.63;;;19.60;46.30;;;;;;5046980;28;21431;-69
2020/12/13 11:13:16;;;;;;;27.30;14.40;;;19.50;46.20;;;;;;5042614;28;20501;-69
2020/12/13 11:15:42;;;;;;;30.00;15.00;;;19.60;46.30;;;;;;5042715;28;21057;-67
2020/12/13 11:18:08;;;;;;;30.67;15.17;;;19.60;47.10;;;;;;5049221;28;20490;-68
2020/12/13 11:20:35;;;;;;;26.87;16.10;;;19.70;47.40;;;;;;5047042;28;20477;-67
2020/12/13 11:23:01;;;;;;;32.17;16.13;;;19.70;47.40;;;;;;5048884;28;20489;-67
2020/12/13 11:25:27;;;;;;;30.80;15.10;;;19.80;47.00;;;;;;5049020;28;20505;-67
2020/12/13 11:27:54;;;;;;;33.57;15.97;;;19.90;46.50;;;;;;5048523;28;20486;-67
2020/12/13 11:30:20;;;;;;;32.30;17.77;;;19.90;46.50;;;;;;5044033;28;20490;-69
2020/12/13 11:32:47;;;;;;;32.10;16.03;;;20.00;46.30;;;;;;5048626;28;20485;-68
2020/12/13 11:35:13;;;;;;;28.50;15.63;;;20.10;46.70;;;;;;5048413;28;21352;-68
2020/12/13 11:37:39;;;;;;;29.47;17.07;;;20.10;46.40;;;;;;5048947;28;20859;-68
2020/12/13 11:40:06;;;;;;;35.03;15.73;;;20.10;46.40;;;;;;5047335;28;20501;-69
2020/12/13 11:42:32;;;;;;;37.57;15.77;;;20.10;46.30;;;;;;5049174;28;20479;-68
2020/12/13 11:44:59;;;;;;;31.83;15.40;;;20.20;45.90;;;;;;5050856;28;20482;-67
2020/12/13 11:47:25;;;;;;;26.10;13.33;;;20.10;45.70;;;;;;5053310;28;21013;-67
2020/12/13 11:49:51;;;;;;;33.20;15.53;;;20.10;45.70;;;;;;5049814;28;20536;-68
2020/12/13 11:52:17;;;;;;;27.27;13.87;;;20.10;45.60;;;;;;5046630;28;20486;-69
2020/12/13 11:54:43;;;;;;;26.70;14.80;;;20.10;45.50;;;;;;5043907;28;20493;-69
2020/12/13 11:57:10;;;;;;;28.33;14.50;;;20.20;46.20;;;;;;5046593;28;20497;-69
2020/12/13 11:59:36;;;;;;;32.40;15.27;;;20.20;46.00;;;;;;5046138;28;20484;-67
2020/12/13 12:02:03;;;;;;;30.20;15.27;;;20.20;45.40;;;;;;5069049;28;20484;-69
2020/12/13 12:04:29;;;;;;;24.30;13.13;;;20.20;45.50;;;;;;5072352;28;20679;-68
2020/12/13 12:06:55;;;;;;;21.33;12.80;;;20.20;45.40;;;;;;5069843;28;20490;-67
2020/12/13 12:09:21;;;;;;;31.27;15.53;;;20.20;45.30;;;;;;5071330;28;20473;-66
2020/12/13 12:11:47;;;;;;;30.23;14.63;;;20.10;45.60;;;;;;5068703;28;20484;-68
2020/12/13 12:14:14;;;;;;;27.23;14.67;;;20.30;46.00;;;;;;5069138;28;20508;-67
2020/12/13 12:16:40;;;;;;;32.43;15.10;;;20.30;45.80;;;;;;5075522;28;20479;-65
2020/12/13 12:19:07;;;;;;;25.90;14.77;;;20.40;45.40;;;;;;5070279;28;20492;-68
2020/12/13 12:21:35;;;;;;;28.70;14.73;;;20.30;45.80;;;;;;5067264;28;20472;-68
2020/12/13 12:24:01;;;;;;;28.50;15.37;;;20.40;44.80;;;;;;5067938;28;21934;-68
2020/12/13 12:26:31;;;;;;;25.43;14.57;;;20.30;44.60;;;;;;5068920;28;20894;-67